sensor_id;sensor_type;location;lat;lon;timestamp;P1;durP1;ratioP1;P2;durP2;ratioP2
5696;SDS011;2873;50.966;7.210;2022-10-13T00:01:13;25.67;;;14.63;;
5696;SDS011;2873;50.966;7.210;2022-10-13T00:03:41;30.38;;;13.82;;
5696;SDS011;2873;50.966;7.210;2022-10-13T00:06:11;28.08;;;15.32;;
5696;SDS011;2873;50.966;7.210;2022-10-13T00:08:38;28.83;;;14.73;;
5696;SDS011;2873;50.966;7.210;2022-10-13T00:11:11;27.10;;;15.70;;
5696;SDS011;2873;50.966;7.210;2022-10-13T00:13:39;26.63;;;15.02;;
5696;SDS011;2873;50.966;7.210;2022-10-13T00:16:05;30.23;;;15.38;;
5696;SDS011;2873;50.966;7.210;2022-10-13T00:18:31;27.38;;;14.30;;
5696;SDS011;2873;50.966;7.210;2022-10-13T00:20:57;24.52;;;14.52;;
5696;SDS011;2873;50.966;7.210;2022-10-13T00:23:23;21.93;;;13.13;;
5696;SDS011;2873;50.966;7.210;2022-10-13T00:25:49;23.57;;;14.63;;
5696;SDS011;2873;50.966;7.210;2022-10-13T00:28:16;30.63;;;15.25;;
5696;SDS011;2873;50.966;7.210;2022-10-13T00:30:43;23.70;;;14.15;;
5696;SDS011;2873;50.966;7.210;2022-10-13T00:33:09;27.75;;;15.38;;
5696;SDS011;2873;50.966;7.210;2022-10-13T00:35:44;24.90;;;14.35;;
5696;SDS011;2873;50.966;7.210;2022-10-13T00:38:11;27.75;;;14.63;;
5696;SDS011;2873;50.966;7.210;2022-10-13T00:40:47;33.00;;;15.05;;
5696;SDS011;2873;50.966;7.210;2022-10-13T00:43:18;28.37;;;15.10;;
5696;SDS011;2873;50.966;7.210;2022-10-13T00:45:52;23.13;;;14.05;;
5696;SDS011;2873;50.966;7.210;2022-10-13T00:48:22;27.42;;;14.52;;
5696;SDS011;2873;50.966;7.210;2022-10-13T00:50:50;25.30;;;15.88;;
5696;SDS011;2873;50.966;7.210;2022-10-13T00:53:17;26.55;;;14.68;;
5696;SDS011;2873;50.966;7.210;2022-10-13T00:55:45;26.33;;;14.80;;
5696;SDS011;2873;50.966;7.210;2022-10-13T00:58:13;22.83;;;14.23;;
5696;SDS011;2873;50.966;7.210;2022-10-13T01:00:42;25.63;;;14.83;;
5696;SDS011;2873;50.966;7.210;2022-10-13T01:03:11;20.33;;;14.10;;
5696;SDS011;2873;50.966;7.210;2022-10-13T01:05:37;26.43;;;15.30;;
5696;SDS011;2873;50.966;7.210;2022-10-13T01:08:04;27.45;;;15.00;;
5696;SDS011;2873;50.966;7.210;2022-10-13T01:18:40;28.27;;;15.52;;
5696;SDS011;2873;50.966;7.210;2022-10-13T01:26:35;26.35;;;15.20;;
5696;SDS011;2873;50.966;7.210;2022-10-13T01:32:15;27.50;;;14.63;;
5696;SDS011;2873;50.966;7.210;2022-10-13T01:34:54;26.77;;;14.80;;
5696;SDS011;2873;50.966;7.210;2022-10-13T01:38:18;29.77;;;15.60;;
5696;SDS011;2873;50.966;7.210;2022-10-13T01:43:05;24.97;;;14.47;;
5696;SDS011;2873;50.966;7.210;2022-10-13T01:45:44;33.15;;;16.63;;
5696;SDS011;2873;50.966;7.210;2022-10-13T01:48:14;25.27;;;15.65;;
5696;SDS011;2873;50.966;7.210;2022-10-13T01:50:41;29.80;;;15.25;;
5696;SDS011;2873;50.966;7.210;2022-10-13T01:53:08;29.70;;;14.88;;
5696;SDS011;2873;50.966;7.210;2022-10-13T01:55:47;30.95;;;15.90;;
5696;SDS011;2873;50.966;7.210;2022-10-13T01:58:14;29.20;;;15.30;;
5696;SDS011;2873;50.966;7.210;2022-10-13T02:00:41;25.80;;;15.65;;
5696;SDS011;2873;50.966;7.210;2022-10-13T02:03:16;28.48;;;15.25;;
5696;SDS011;2873;50.966;7.210;2022-10-13T02:05:55;32.80;;;15.55;;
5696;SDS011;2873;50.966;7.210;2022-10-13T02:08:54;28.20;;;16.30;;
5696;SDS011;2873;50.966;7.210;2022-10-13T02:11:24;23.35;;;15.30;;
5696;SDS011;2873;50.966;7.210;2022-10-13T02:14:02;27.45;;;15.23;;
5696;SDS011;2873;50.966;7.210;2022-10-13T02:16:34;28.55;;;14.90;;
5696;SDS011;2873;50.966;7.210;2022-10-13T02:19:05;29.60;;;16.98;;
5696;SDS011;2873;50.966;7.210;2022-10-13T02:21:33;23.40;;;14.95;;
5696;SDS011;2873;50.966;7.210;2022-10-13T02:24:01;28.92;;;15.93;;
5696;SDS011;2873;50.966;7.210;2022-10-13T02:26:28;28.40;;;15.13;;
5696;SDS011;2873;50.966;7.210;2022-10-13T02:28:56;33.30;;;15.40;;
5696;SDS011;2873;50.966;7.210;2022-10-13T02:31:21;25.80;;;15.63;;
5696;SDS011;2873;50.966;7.210;2022-10-13T02:33:47;26.07;;;15.13;;
5696;SDS011;2873;50.966;7.210;2022-10-13T02:36:12;29.45;;;16.50;;
5696;SDS011;2873;50.966;7.210;2022-10-13T02:38:38;31.47;;;16.10;;
5696;SDS011;2873;50.966;7.210;2022-10-13T02:41:03;30.67;;;16.80;;
5696;SDS011;2873;50.966;7.210;2022-10-13T02:43:29;34.20;;;16.67;;
5696;SDS011;2873;50.966;7.210;2022-10-13T02:45:55;29.58;;;15.98;;
5696;SDS011;2873;50.966;7.210;2022-10-13T02:48:20;34.37;;;16.57;;
5696;SDS011;2873;50.966;7.210;2022-10-13T02:50:46;32.97;;;16.80;;
5696;SDS011;2873;50.966;7.210;2022-10-13T02:53:11;30.27;;;16.43;;
5696;SDS011;2873;50.966;7.210;2022-10-13T02:55:37;32.00;;;17.05;;
5696;SDS011;2873;50.966;7.210;2022-10-13T02:58:03;27.57;;;16.10;;
5696;SDS011;2873;50.966;7.210;2022-10-13T03:00:28;28.05;;;16.30;;
5696;SDS011;2873;50.966;7.210;2022-10-13T03:02:54;27.23;;;16.35;;
5696;SDS011;2873;50.966;7.210;2022-10-13T03:05:20;30.20;;;16.60;;
5696;SDS011;2873;50.966;7.210;2022-10-13T03:07:45;28.05;;;15.45;;
5696;SDS011;2873;50.966;7.210;2022-10-13T03:10:11;30.77;;;17.20;;
5696;SDS011;2873;50.966;7.210;2022-10-13T03:12:37;28.55;;;16.50;;
5696;SDS011;2873;50.966;7.210;2022-10-13T03:15:02;28.37;;;15.50;;
5696;SDS011;2873;50.966;7.210;2022-10-13T03:17:28;28.17;;;15.40;;
5696;SDS011;2873;50.966;7.210;2022-10-13T03:19:54;26.53;;;15.83;;
5696;SDS011;2873;50.966;7.210;2022-10-13T03:22:19;28.97;;;14.97;;
5696;SDS011;2873;50.966;7.210;2022-10-13T03:24:45;30.38;;;16.25;;
5696;SDS011;2873;50.966;7.210;2022-10-13T03:27:11;30.83;;;16.33;;
5696;SDS011;2873;50.966;7.210;2022-10-13T03:29:36;28.50;;;15.63;;
5696;SDS011;2873;50.966;7.210;2022-10-13T03:32:02;28.93;;;16.27;;
5696;SDS011;2873;50.966;7.210;2022-10-13T03:34:27;30.20;;;15.50;;
5696;SDS011;2873;50.966;7.210;2022-10-13T03:36:53;29.60;;;15.53;;
5696;SDS011;2873;50.966;7.210;2022-10-13T03:39:18;29.67;;;15.73;;
5696;SDS011;2873;50.966;7.210;2022-10-13T03:41:44;33.03;;;16.57;;
5696;SDS011;2873;50.966;7.210;2022-10-13T03:44:10;28.60;;;15.57;;
5696;SDS011;2873;50.966;7.210;2022-10-13T03:46:37;35.95;;;16.58;;
5696;SDS011;2873;50.966;7.210;2022-10-13T03:49:02;32.75;;;16.38;;
5696;SDS011;2873;50.966;7.210;2022-10-13T03:51:28;28.07;;;16.53;;
5696;SDS011;2873;50.966;7.210;2022-10-13T03:53:53;31.33;;;16.52;;
5696;SDS011;2873;50.966;7.210;2022-10-13T03:56:20;32.00;;;16.40;;
5696;SDS011;2873;50.966;7.210;2022-10-13T03:58:48;31.27;;;17.63;;
5696;SDS011;2873;50.966;7.210;2022-10-13T04:01:18;29.77;;;15.43;;
5696;SDS011;2873;50.966;7.210;2022-10-13T04:03:48;30.50;;;15.38;;
5696;SDS011;2873;50.966;7.210;2022-10-13T04:06:16;31.00;;;16.50;;
5696;SDS011;2873;50.966;7.210;2022-10-13T04:08:41;28.73;;;16.63;;
5696;SDS011;2873;50.966;7.210;2022-10-13T04:11:08;33.97;;;16.20;;
5696;SDS011;2873;50.966;7.210;2022-10-13T04:13:36;31.75;;;16.50;;
5696;SDS011;2873;50.966;7.210;2022-10-13T04:16:02;32.25;;;16.52;;
5696;SDS011;2873;50.966;7.210;2022-10-13T04:18:28;29.65;;;16.25;;
5696;SDS011;2873;50.966;7.210;2022-10-13T04:20:54;28.10;;;15.73;;
5696;SDS011;2873;50.966;7.210;2022-10-13T04:23:20;29.23;;;15.50;;
5696;SDS011;2873;50.966;7.210;2022-10-13T04:25:45;28.23;;;15.77;;
5696;SDS011;2873;50.966;7.210;2022-10-13T04:28:11;31.15;;;14.90;;
5696;SDS011;2873;50.966;7.210;2022-10-13T04:30:37;26.25;;;15.32;;
5696;SDS011;2873;50.966;7.210;2022-10-13T04:33:03;30.33;;;16.30;;
5696;SDS011;2873;50.966;7.210;2022-10-13T04:35:28;27.98;;;16.65;;
5696;SDS011;2873;50.966;7.210;2022-10-13T04:37:54;31.75;;;16.63;;
5696;SDS011;2873;50.966;7.210;2022-10-13T04:40:22;25.80;;;15.93;;
5696;SDS011;2873;50.966;7.210;2022-10-13T04:42:47;28.75;;;15.52;;
5696;SDS011;2873;50.966;7.210;2022-10-13T04:45:13;28.23;;;15.03;;
5696;SDS011;2873;50.966;7.210;2022-10-13T04:47:39;32.47;;;16.35;;
5696;SDS011;2873;50.966;7.210;2022-10-13T04:50:04;30.67;;;15.75;;
5696;SDS011;2873;50.966;7.210;2022-10-13T04:52:30;27.80;;;15.40;;
5696;SDS011;2873;50.966;7.210;2022-10-13T04:54:57;28.98;;;15.90;;
5696;SDS011;2873;50.966;7.210;2022-10-13T04:57:22;32.03;;;15.97;;
5696;SDS011;2873;50.966;7.210;2022-10-13T04:59:48;27.00;;;15.70;;
5696;SDS011;2873;50.966;7.210;2022-10-13T05:02:13;27.77;;;15.20;;
5696;SDS011;2873;50.966;7.210;2022-10-13T05:04:39;31.50;;;16.67;;
5696;SDS011;2873;50.966;7.210;2022-10-13T05:07:05;29.20;;;15.70;;
5696;SDS011;2873;50.966;7.210;2022-10-13T05:09:30;33.60;;;14.40;;
5696;SDS011;2873;50.966;7.210;2022-10-13T05:11:56;30.77;;;16.00;;
5696;SDS011;2873;50.966;7.210;2022-10-13T05:14:21;30.83;;;15.45;;
5696;SDS011;2873;50.966;7.210;2022-10-13T05:16:47;25.53;;;15.30;;
5696;SDS011;2873;50.966;7.210;2022-10-13T05:19:13;23.05;;;14.48;;
5696;SDS011;2873;50.966;7.210;2022-10-13T05:21:39;26.38;;;14.93;;
5696;SDS011;2873;50.966;7.210;2022-10-13T05:24:05;24.92;;;15.25;;
5696;SDS011;2873;50.966;7.210;2022-10-13T05:26:31;27.20;;;14.77;;
5696;SDS011;2873;50.966;7.210;2022-10-13T05:28:59;25.10;;;13.90;;
5696;SDS011;2873;50.966;7.210;2022-10-13T05:31:26;24.48;;;14.80;;
5696;SDS011;2873;50.966;7.210;2022-10-13T05:33:54;26.00;;;14.10;;
5696;SDS011;2873;50.966;7.210;2022-10-13T05:36:24;25.02;;;14.82;;
5696;SDS011;2873;50.966;7.210;2022-10-13T05:38:51;24.92;;;14.48;;
5696;SDS011;2873;50.966;7.210;2022-10-13T05:41:19;26.85;;;15.75;;
5696;SDS011;2873;50.966;7.210;2022-10-13T05:43:45;28.73;;;15.05;;
5696;SDS011;2873;50.966;7.210;2022-10-13T05:46:11;23.77;;;14.27;;
5696;SDS011;2873;50.966;7.210;2022-10-13T05:48:36;22.90;;;13.93;;
5696;SDS011;2873;50.966;7.210;2022-10-13T05:51:04;23.83;;;15.50;;
5696;SDS011;2873;50.966;7.210;2022-10-13T05:53:34;24.57;;;15.40;;
5696;SDS011;2873;50.966;7.210;2022-10-13T05:56:04;25.05;;;14.18;;
5696;SDS011;2873;50.966;7.210;2022-10-13T05:58:33;26.30;;;14.80;;
5696;SDS011;2873;50.966;7.210;2022-10-13T06:01:03;27.58;;;14.68;;
5696;SDS011;2873;50.966;7.210;2022-10-13T06:03:32;27.35;;;14.63;;
5696;SDS011;2873;50.966;7.210;2022-10-13T06:05:58;30.00;;;15.60;;
5696;SDS011;2873;50.966;7.210;2022-10-13T06:08:24;27.40;;;14.77;;
5696;SDS011;2873;50.966;7.210;2022-10-13T06:10:50;29.00;;;15.10;;
5696;SDS011;2873;50.966;7.210;2022-10-13T06:13:16;28.27;;;15.23;;
5696;SDS011;2873;50.966;7.210;2022-10-13T06:15:41;23.90;;;14.53;;
5696;SDS011;2873;50.966;7.210;2022-10-13T06:18:07;23.90;;;13.85;;
5696;SDS011;2873;50.966;7.210;2022-10-13T06:20:33;27.00;;;15.27;;
5696;SDS011;2873;50.966;7.210;2022-10-13T06:22:59;25.98;;;14.40;;
5696;SDS011;2873;50.966;7.210;2022-10-13T06:25:25;25.45;;;15.15;;
5696;SDS011;2873;50.966;7.210;2022-10-13T06:27:51;24.17;;;15.40;;
5696;SDS011;2873;50.966;7.210;2022-10-13T06:30:16;29.23;;;15.77;;
5696;SDS011;2873;50.966;7.210;2022-10-13T06:32:42;26.20;;;14.13;;
5696;SDS011;2873;50.966;7.210;2022-10-13T06:35:08;28.77;;;15.20;;
5696;SDS011;2873;50.966;7.210;2022-10-13T06:37:33;27.67;;;14.73;;
5696;SDS011;2873;50.966;7.210;2022-10-13T06:39:59;26.33;;;15.23;;
5696;SDS011;2873;50.966;7.210;2022-10-13T06:42:24;27.50;;;14.70;;
5696;SDS011;2873;50.966;7.210;2022-10-13T06:44:50;30.27;;;16.13;;
5696;SDS011;2873;50.966;7.210;2022-10-13T06:47:15;28.03;;;16.20;;
5696;SDS011;2873;50.966;7.210;2022-10-13T06:49:41;39.35;;;21.77;;
5696;SDS011;2873;50.966;7.210;2022-10-13T06:52:09;41.15;;;24.77;;
5696;SDS011;2873;50.966;7.210;2022-10-13T06:54:34;34.80;;;22.00;;
5696;SDS011;2873;50.966;7.210;2022-10-13T06:57:00;30.67;;;18.60;;
5696;SDS011;2873;50.966;7.210;2022-10-13T06:59:25;25.38;;;16.90;;
5696;SDS011;2873;50.966;7.210;2022-10-13T07:01:51;29.37;;;14.83;;
5696;SDS011;2873;50.966;7.210;2022-10-13T07:04:17;22.87;;;14.10;;
5696;SDS011;2873;50.966;7.210;2022-10-13T07:06:43;23.02;;;14.20;;
5696;SDS011;2873;50.966;7.210;2022-10-13T07:09:09;32.33;;;16.80;;
5696;SDS011;2873;50.966;7.210;2022-10-13T07:11:34;28.30;;;18.30;;
5696;SDS011;2873;50.966;7.210;2022-10-13T07:14:00;31.60;;;17.25;;
5696;SDS011;2873;50.966;7.210;2022-10-13T07:16:26;23.10;;;14.40;;
5696;SDS011;2873;50.966;7.210;2022-10-13T07:18:51;25.60;;;15.50;;
5696;SDS011;2873;50.966;7.210;2022-10-13T07:21:17;23.13;;;14.80;;
5696;SDS011;2873;50.966;7.210;2022-10-13T07:23:43;23.70;;;13.65;;
5696;SDS011;2873;50.966;7.210;2022-10-13T07:26:09;21.37;;;12.70;;
5696;SDS011;2873;50.966;7.210;2022-10-13T07:28:37;23.33;;;13.90;;
5696;SDS011;2873;50.966;7.210;2022-10-13T07:31:10;22.88;;;14.27;;
5696;SDS011;2873;50.966;7.210;2022-10-13T07:33:38;20.52;;;13.70;;
5696;SDS011;2873;50.966;7.210;2022-10-13T07:36:04;23.70;;;13.93;;
5696;SDS011;2873;50.966;7.210;2022-10-13T07:38:31;24.35;;;13.57;;
5696;SDS011;2873;50.966;7.210;2022-10-13T07:41:00;22.40;;;13.93;;
5696;SDS011;2873;50.966;7.210;2022-10-13T07:43:27;23.52;;;13.63;;
5696;SDS011;2873;50.966;7.210;2022-10-13T07:45:53;20.83;;;13.70;;
5696;SDS011;2873;50.966;7.210;2022-10-13T07:48:18;26.50;;;13.80;;
5696;SDS011;2873;50.966;7.210;2022-10-13T07:50:44;21.57;;;13.57;;
5696;SDS011;2873;50.966;7.210;2022-10-13T07:53:10;25.13;;;14.68;;
5696;SDS011;2873;50.966;7.210;2022-10-13T07:55:35;22.10;;;13.57;;
5696;SDS011;2873;50.966;7.210;2022-10-13T07:58:01;24.93;;;13.27;;
5696;SDS011;2873;50.966;7.210;2022-10-13T08:00:27;22.23;;;12.37;;
5696;SDS011;2873;50.966;7.210;2022-10-13T08:02:53;19.13;;;12.77;;
5696;SDS011;2873;50.966;7.210;2022-10-13T08:05:18;22.00;;;13.37;;
5696;SDS011;2873;50.966;7.210;2022-10-13T08:07:44;20.10;;;12.40;;
5696;SDS011;2873;50.966;7.210;2022-10-13T08:10:10;19.87;;;12.67;;
5696;SDS011;2873;50.966;7.210;2022-10-13T08:12:36;24.70;;;13.50;;
5696;SDS011;2873;50.966;7.210;2022-10-13T08:15:02;22.43;;;12.77;;
5696;SDS011;2873;50.966;7.210;2022-10-13T08:17:28;20.55;;;12.95;;
5696;SDS011;2873;50.966;7.210;2022-10-13T08:19:54;21.30;;;13.60;;
5696;SDS011;2873;50.966;7.210;2022-10-13T08:22:20;19.10;;;13.13;;
5696;SDS011;2873;50.966;7.210;2022-10-13T08:24:46;22.60;;;13.57;;
5696;SDS011;2873;50.966;7.210;2022-10-13T08:27:13;23.70;;;14.15;;
5696;SDS011;2873;50.966;7.210;2022-10-13T08:29:44;19.70;;;13.20;;
5696;SDS011;2873;50.966;7.210;2022-10-13T08:32:10;19.70;;;13.37;;
5696;SDS011;2873;50.966;7.210;2022-10-13T08:34:36;20.73;;;13.07;;
5696;SDS011;2873;50.966;7.210;2022-10-13T08:37:01;24.60;;;13.90;;
5696;SDS011;2873;50.966;7.210;2022-10-13T08:39:27;23.02;;;13.07;;
5696;SDS011;2873;50.966;7.210;2022-10-13T08:41:54;22.65;;;12.93;;
5696;SDS011;2873;50.966;7.210;2022-10-13T08:49:57;21.42;;;12.85;;
5696;SDS011;2873;50.966;7.210;2022-10-13T08:52:39;21.42;;;14.05;;
5696;SDS011;2873;50.966;7.210;2022-10-13T08:55:32;21.77;;;12.98;;
5696;SDS011;2873;50.966;7.210;2022-10-13T08:58:05;17.05;;;12.63;;
5696;SDS011;2873;50.966;7.210;2022-10-13T09:00:38;22.77;;;12.40;;
5696;SDS011;2873;50.966;7.210;2022-10-13T09:03:21;22.85;;;12.38;;
5696;SDS011;2873;50.966;7.210;2022-10-13T09:08:33;24.20;;;13.30;;
5696;SDS011;2873;50.966;7.210;2022-10-13T09:11:15;20.13;;;11.90;;
5696;SDS011;2873;50.966;7.210;2022-10-13T09:13:41;23.13;;;12.93;;
5696;SDS011;2873;50.966;7.210;2022-10-13T09:16:06;19.93;;;12.90;;
5696;SDS011;2873;50.966;7.210;2022-10-13T09:18:32;22.55;;;13.52;;
5696;SDS011;2873;50.966;7.210;2022-10-13T09:23:44;23.77;;;12.55;;
5696;SDS011;2873;50.966;7.210;2022-10-13T09:26:15;19.40;;;12.95;;
5696;SDS011;2873;50.966;7.210;2022-10-13T09:28:44;23.83;;;12.97;;
5696;SDS011;2873;50.966;7.210;2022-10-13T09:31:23;21.63;;;12.80;;
5696;SDS011;2873;50.966;7.210;2022-10-13T09:34:01;22.73;;;13.13;;
5696;SDS011;2873;50.966;7.210;2022-10-13T09:36:33;21.13;;;13.10;;
5696;SDS011;2873;50.966;7.210;2022-10-13T09:39:06;19.77;;;11.93;;
5696;SDS011;2873;50.966;7.210;2022-10-13T09:41:36;22.10;;;13.57;;
5696;SDS011;2873;50.966;7.210;2022-10-13T09:44:07;23.63;;;13.23;;
5696;SDS011;2873;50.966;7.210;2022-10-13T09:46:52;23.90;;;13.18;;
5696;SDS011;2873;50.966;7.210;2022-10-13T09:52:13;23.38;;;13.25;;
5696;SDS011;2873;50.966;7.210;2022-10-13T09:54:46;19.48;;;13.05;;
5696;SDS011;2873;50.966;7.210;2022-10-13T09:57:26;19.15;;;12.55;;
5696;SDS011;2873;50.966;7.210;2022-10-13T10:00:05;22.43;;;12.90;;
5696;SDS011;2873;50.966;7.210;2022-10-13T10:02:47;21.33;;;13.50;;
5696;SDS011;2873;50.966;7.210;2022-10-13T10:05:22;21.27;;;12.57;;
5696;SDS011;2873;50.966;7.210;2022-10-13T10:07:50;19.27;;;12.80;;
5696;SDS011;2873;50.966;7.210;2022-10-13T10:12:58;20.17;;;11.93;;
5696;SDS011;2873;50.966;7.210;2022-10-13T10:15:27;19.38;;;11.85;;
5696;SDS011;2873;50.966;7.210;2022-10-13T10:18:02;18.70;;;12.15;;
5696;SDS011;2873;50.966;7.210;2022-10-13T10:23:24;20.08;;;12.80;;
5696;SDS011;2873;50.966;7.210;2022-10-13T10:26:12;19.17;;;11.47;;
5696;SDS011;2873;50.966;7.210;2022-10-13T10:31:31;20.60;;;11.90;;
5696;SDS011;2873;50.966;7.210;2022-10-13T10:34:37;19.42;;;10.18;;
5696;SDS011;2873;50.966;7.210;2022-10-13T10:45:55;20.48;;;10.88;;
5696;SDS011;2873;50.966;7.210;2022-10-13T10:48:24;12.18;;;9.40;;
5696;SDS011;2873;50.966;7.210;2022-10-13T10:51:00;15.57;;;10.10;;
5696;SDS011;2873;50.966;7.210;2022-10-13T10:53:37;16.73;;;9.33;;
5696;SDS011;2873;50.966;7.210;2022-10-13T10:56:14;13.18;;;9.10;;
5696;SDS011;2873;50.966;7.210;2022-10-13T10:58:52;15.90;;;9.30;;
5696;SDS011;2873;50.966;7.210;2022-10-13T11:01:40;16.65;;;9.80;;
5696;SDS011;2873;50.966;7.210;2022-10-13T11:04:29;13.33;;;9.23;;
5696;SDS011;2873;50.966;7.210;2022-10-13T11:07:10;14.35;;;9.45;;
5696;SDS011;2873;50.966;7.210;2022-10-13T11:14:44;12.70;;;9.20;;
5696;SDS011;2873;50.966;7.210;2022-10-13T11:17:28;10.73;;;8.60;;
5696;SDS011;2873;50.966;7.210;2022-10-13T11:19:56;12.57;;;9.05;;
5696;SDS011;2873;50.966;7.210;2022-10-13T11:22:29;15.82;;;9.55;;
5696;SDS011;2873;50.966;7.210;2022-10-13T11:27:36;17.03;;;9.50;;
5696;SDS011;2873;50.966;7.210;2022-10-13T11:30:05;15.50;;;9.68;;
5696;SDS011;2873;50.966;7.210;2022-10-13T11:55:16;18.27;;;9.80;;
5696;SDS011;2873;50.966;7.210;2022-10-13T11:57:44;18.77;;;10.27;;
5696;SDS011;2873;50.966;7.210;2022-10-13T12:00:14;18.77;;;10.67;;
5696;SDS011;2873;50.966;7.210;2022-10-13T12:02:48;22.23;;;11.65;;
5696;SDS011;2873;50.966;7.210;2022-10-13T12:05:25;17.00;;;10.80;;
5696;SDS011;2873;50.966;7.210;2022-10-13T12:07:53;16.13;;;10.10;;
5696;SDS011;2873;50.966;7.210;2022-10-13T12:10:32;17.30;;;10.57;;
5696;SDS011;2873;50.966;7.210;2022-10-13T12:13:00;19.97;;;9.90;;
5696;SDS011;2873;50.966;7.210;2022-10-13T12:18:25;18.65;;;10.30;;
5696;SDS011;2873;50.966;7.210;2022-10-13T12:20:55;18.20;;;9.60;;
5696;SDS011;2873;50.966;7.210;2022-10-13T12:23:22;13.82;;;9.32;;
5696;SDS011;2873;50.966;7.210;2022-10-13T12:25:48;18.23;;;9.60;;
5696;SDS011;2873;50.966;7.210;2022-10-13T12:28:20;13.95;;;8.93;;
5696;SDS011;2873;50.966;7.210;2022-10-13T12:30:50;14.40;;;9.10;;
5696;SDS011;2873;50.966;7.210;2022-10-13T12:33:30;17.13;;;9.35;;
5696;SDS011;2873;50.966;7.210;2022-10-13T12:36:18;14.32;;;8.80;;
5696;SDS011;2873;50.966;7.210;2022-10-13T12:38:47;14.73;;;10.07;;
5696;SDS011;2873;50.966;7.210;2022-10-13T12:41:17;14.02;;;8.52;;
5696;SDS011;2873;50.966;7.210;2022-10-13T12:44:03;13.60;;;9.27;;
5696;SDS011;2873;50.966;7.210;2022-10-13T12:49:23;16.58;;;8.05;;
5696;SDS011;2873;50.966;7.210;2022-10-13T12:52:13;17.85;;;8.65;;
5696;SDS011;2873;50.966;7.210;2022-10-13T12:54:46;13.32;;;8.20;;
5696;SDS011;2873;50.966;7.210;2022-10-13T12:57:18;15.90;;;9.23;;
5696;SDS011;2873;50.966;7.210;2022-10-13T13:00:03;19.10;;;9.30;;
5696;SDS011;2873;50.966;7.210;2022-10-13T13:02:30;15.60;;;8.70;;
5696;SDS011;2873;50.966;7.210;2022-10-13T13:04:57;15.98;;;8.48;;
5696;SDS011;2873;50.966;7.210;2022-10-13T13:07:33;15.82;;;8.40;;
5696;SDS011;2873;50.966;7.210;2022-10-13T13:12:32;12.80;;;8.75;;
5696;SDS011;2873;50.966;7.210;2022-10-13T13:15:35;15.20;;;8.70;;
5696;SDS011;2873;50.966;7.210;2022-10-13T13:20:54;17.30;;;9.70;;
5696;SDS011;2873;50.966;7.210;2022-10-13T13:23:20;17.20;;;9.40;;
5696;SDS011;2873;50.966;7.210;2022-10-13T13:25:57;13.10;;;9.25;;
5696;SDS011;2873;50.966;7.210;2022-10-13T13:28:51;11.60;;;8.80;;
5696;SDS011;2873;50.966;7.210;2022-10-13T13:31:19;18.85;;;9.10;;
5696;SDS011;2873;50.966;7.210;2022-10-13T13:33:49;13.00;;;8.57;;
5696;SDS011;2873;50.966;7.210;2022-10-13T13:36:19;16.20;;;9.40;;
5696;SDS011;2873;50.966;7.210;2022-10-13T13:38:46;11.93;;;8.30;;
5696;SDS011;2873;50.966;7.210;2022-10-13T13:41:12;16.90;;;8.60;;
5696;SDS011;2873;50.966;7.210;2022-10-13T13:43:38;18.90;;;9.55;;
5696;SDS011;2873;50.966;7.210;2022-10-13T13:46:05;14.30;;;8.95;;
5696;SDS011;2873;50.966;7.210;2022-10-13T13:48:34;13.65;;;8.82;;
5696;SDS011;2873;50.966;7.210;2022-10-13T13:51:00;17.42;;;9.75;;
5696;SDS011;2873;50.966;7.210;2022-10-13T13:53:25;16.80;;;8.60;;
5696;SDS011;2873;50.966;7.210;2022-10-13T13:55:51;16.27;;;9.20;;
5696;SDS011;2873;50.966;7.210;2022-10-13T13:58:17;14.83;;;8.70;;
5696;SDS011;2873;50.966;7.210;2022-10-13T14:00:42;14.27;;;8.70;;
5696;SDS011;2873;50.966;7.210;2022-10-13T14:03:08;12.95;;;8.93;;
5696;SDS011;2873;50.966;7.210;2022-10-13T14:05:36;13.80;;;8.63;;
5696;SDS011;2873;50.966;7.210;2022-10-13T14:08:03;15.63;;;7.70;;
5696;SDS011;2873;50.966;7.210;2022-10-13T14:10:29;12.57;;;8.33;;
5696;SDS011;2873;50.966;7.210;2022-10-13T14:12:54;10.80;;;7.57;;
5696;SDS011;2873;50.966;7.210;2022-10-13T14:15:20;18.92;;;7.80;;
5696;SDS011;2873;50.966;7.210;2022-10-13T14:17:46;21.07;;;8.33;;
5696;SDS011;2873;50.966;7.210;2022-10-13T14:20:11;14.57;;;7.68;;
5696;SDS011;2873;50.966;7.210;2022-10-13T14:22:37;12.60;;;8.05;;
5696;SDS011;2873;50.966;7.210;2022-10-13T14:25:04;11.48;;;7.53;;
5696;SDS011;2873;50.966;7.210;2022-10-13T14:27:31;15.95;;;7.90;;
5696;SDS011;2873;50.966;7.210;2022-10-13T14:29:58;13.75;;;7.70;;
5696;SDS011;2873;50.966;7.210;2022-10-13T14:32:23;13.50;;;8.50;;
5696;SDS011;2873;50.966;7.210;2022-10-13T14:34:49;14.77;;;7.13;;
5696;SDS011;2873;50.966;7.210;2022-10-13T14:37:14;14.73;;;8.20;;
5696;SDS011;2873;50.966;7.210;2022-10-13T14:39:40;13.80;;;8.10;;
5696;SDS011;2873;50.966;7.210;2022-10-13T14:42:05;21.48;;;10.30;;
5696;SDS011;2873;50.966;7.210;2022-10-13T14:44:31;16.20;;;9.43;;
5696;SDS011;2873;50.966;7.210;2022-10-13T14:46:56;15.40;;;8.70;;
5696;SDS011;2873;50.966;7.210;2022-10-13T14:49:22;15.65;;;8.85;;
5696;SDS011;2873;50.966;7.210;2022-10-13T14:51:48;14.97;;;8.17;;
5696;SDS011;2873;50.966;7.210;2022-10-13T14:54:13;15.60;;;8.80;;
5696;SDS011;2873;50.966;7.210;2022-10-13T14:56:39;11.93;;;8.13;;
5696;SDS011;2873;50.966;7.210;2022-10-13T14:59:05;15.20;;;8.40;;
5696;SDS011;2873;50.966;7.210;2022-10-13T15:01:31;13.98;;;8.45;;
5696;SDS011;2873;50.966;7.210;2022-10-13T15:03:57;13.23;;;8.70;;
5696;SDS011;2873;50.966;7.210;2022-10-13T15:06:24;15.15;;;9.05;;
5696;SDS011;2873;50.966;7.210;2022-10-13T15:08:50;15.20;;;8.43;;
5696;SDS011;2873;50.966;7.210;2022-10-13T15:11:16;16.00;;;9.73;;
5696;SDS011;2873;50.966;7.210;2022-10-13T15:13:43;15.13;;;8.45;;
5696;SDS011;2873;50.966;7.210;2022-10-13T15:16:17;14.00;;;8.95;;
5696;SDS011;2873;50.966;7.210;2022-10-13T15:18:44;18.38;;;9.88;;
5696;SDS011;2873;50.966;7.210;2022-10-13T15:21:10;15.52;;;9.20;;
5696;SDS011;2873;50.966;7.210;2022-10-13T15:23:36;16.50;;;8.80;;
5696;SDS011;2873;50.966;7.210;2022-10-13T15:26:02;13.98;;;8.77;;
5696;SDS011;2873;50.966;7.210;2022-10-13T15:28:29;20.93;;;9.47;;
5696;SDS011;2873;50.966;7.210;2022-10-13T15:31:01;22.48;;;10.48;;
5696;SDS011;2873;50.966;7.210;2022-10-13T15:33:26;15.90;;;9.10;;
5696;SDS011;2873;50.966;7.210;2022-10-13T15:35:52;16.13;;;8.77;;
5696;SDS011;2873;50.966;7.210;2022-10-13T15:38:19;15.43;;;9.75;;
5696;SDS011;2873;50.966;7.210;2022-10-13T15:40:45;16.77;;;9.75;;
5696;SDS011;2873;50.966;7.210;2022-10-13T15:43:11;15.82;;;10.00;;
5696;SDS011;2873;50.966;7.210;2022-10-13T15:45:37;15.07;;;10.10;;
5696;SDS011;2873;50.966;7.210;2022-10-13T15:48:04;14.82;;;10.40;;
5696;SDS011;2873;50.966;7.210;2022-10-13T15:50:30;22.90;;;11.30;;
5696;SDS011;2873;50.966;7.210;2022-10-13T15:52:56;19.70;;;11.97;;
5696;SDS011;2873;50.966;7.210;2022-10-13T15:55:22;19.85;;;11.10;;
5696;SDS011;2873;50.966;7.210;2022-10-13T15:57:47;18.93;;;9.97;;
5696;SDS011;2873;50.966;7.210;2022-10-13T16:00:13;20.30;;;9.70;;
5696;SDS011;2873;50.966;7.210;2022-10-13T16:02:40;16.10;;;9.90;;
5696;SDS011;2873;50.966;7.210;2022-10-13T16:05:08;17.52;;;11.00;;
5696;SDS011;2873;50.966;7.210;2022-10-13T16:07:35;18.10;;;10.48;;
5696;SDS011;2873;50.966;7.210;2022-10-13T16:10:04;20.35;;;10.38;;
5696;SDS011;2873;50.966;7.210;2022-10-13T16:12:29;17.65;;;10.93;;
5696;SDS011;2873;50.966;7.210;2022-10-13T16:14:55;21.60;;;11.57;;
5696;SDS011;2873;50.966;7.210;2022-10-13T16:17:21;18.00;;;10.48;;
5696;SDS011;2873;50.966;7.210;2022-10-13T16:19:46;17.42;;;10.68;;
5696;SDS011;2873;50.966;7.210;2022-10-13T16:22:12;18.20;;;11.10;;
5696;SDS011;2873;50.966;7.210;2022-10-13T16:24:38;18.40;;;11.25;;
5696;SDS011;2873;50.966;7.210;2022-10-13T16:27:05;20.03;;;11.30;;
5696;SDS011;2873;50.966;7.210;2022-10-13T16:29:31;18.85;;;11.77;;
5696;SDS011;2873;50.966;7.210;2022-10-13T16:31:56;20.98;;;13.10;;